<?xml version="1.0" encoding="UTF-8" standalone="no" ?>
<gpx xmlns="http://www.topografix.com/GPX/1/1" xmlns:xsi="http://www.w3.org/2001/XMLSchema-instance" xsi:schemaLocation="http://www.topografix.com/GPX/1/1 http://www.topografix.com/GPX/1/1/gpx.xsd" version="1.1" creator="VisuGPX - https://www.visugpx.com">
  <metadata>
    <name>David parcours_SP-007</name>
  </metadata>
  <trk>
    <name><![CDATA[ruta 7 de san victorian desde Los Molinos]]></name>
    <trkseg>
      <trkpt lat="42.4493" lon="0.20589">
        <ele>803.3</ele>
        <time>2016-12-17T14:00:13Z</time>
      </trkpt>
      <trkpt lat="42.44934" lon="0.20588">
        <ele>802.4</ele>
        <time>2016-12-17T14:00:14Z</time>
      </trkpt>
      <trkpt lat="42.44938" lon="0.20587">
        <ele>802.4</ele>
        <time>2016-12-17T14:00:15Z</time>
      </trkpt>
      <trkpt lat="42.44942" lon="0.20587">
        <ele>801.9</ele>
        <time>2016-12-17T14:00:16Z</time>
      </trkpt>
      <trkpt lat="42.44946" lon="0.20588">
        <ele>801.9</ele>
        <time>2016-12-17T14:00:17Z</time>
      </trkpt>
      <trkpt lat="42.44975" lon="0.20605">
        <ele>801.9</ele>
        <time>2016-12-17T14:00:29Z</time>
      </trkpt>
      <trkpt lat="42.44993" lon="0.20615">
        <ele>803.3</ele>
        <time>2016-12-17T14:00:38Z</time>
      </trkpt>
      <trkpt lat="42.45029" lon="0.20617">
        <ele>803.8</ele>
        <time>2016-12-17T14:00:52Z</time>
      </trkpt>
      <trkpt lat="42.4506" lon="0.20617">
        <ele>803.8</ele>
        <time>2016-12-17T14:01:04Z</time>
      </trkpt>
      <trkpt lat="42.45085" lon="0.20612">
        <ele>805.2</ele>
        <time>2016-12-17T14:01:17Z</time>
      </trkpt>
      <trkpt lat="42.45106" lon="0.20628">
        <ele>804.3</ele>
        <time>2016-12-17T14:01:27Z</time>
      </trkpt>
      <trkpt lat="42.45116" lon="0.20658">
        <ele>803.3</ele>
        <time>2016-12-17T14:01:38Z</time>
      </trkpt>
      <trkpt lat="42.45121" lon="0.20666">
        <ele>803.3</ele>
        <time>2016-12-17T14:01:43Z</time>
      </trkpt>
      <trkpt lat="42.45121" lon="0.20668">
        <ele>802.8</ele>
        <time>2016-12-17T14:01:44Z</time>
      </trkpt>
      <trkpt lat="42.45119" lon="0.20676">
        <ele>802.8</ele>
        <time>2016-12-17T14:01:48Z</time>
      </trkpt>
      <trkpt lat="42.45118" lon="0.20679">
        <ele>802.8</ele>
        <time>2016-12-17T14:01:49Z</time>
      </trkpt>
      <trkpt lat="42.45117" lon="0.20681">
        <ele>802.8</ele>
        <time>2016-12-17T14:01:50Z</time>
      </trkpt>
      <trkpt lat="42.45116" lon="0.20682">
        <ele>802.8</ele>
        <time>2016-12-17T14:01:51Z</time>
      </trkpt>
      <trkpt lat="42.45115" lon="0.20683">
        <ele>802.8</ele>
        <time>2016-12-17T14:01:52Z</time>
      </trkpt>
      <trkpt lat="42.45113" lon="0.20683">
        <ele>802.8</ele>
        <time>2016-12-17T14:01:53Z</time>
      </trkpt>
      <trkpt lat="42.45112" lon="0.20684">
        <ele>802.8</ele>
        <time>2016-12-17T14:01:54Z</time>
      </trkpt>
      <trkpt lat="42.4511" lon="0.20687">
        <ele>804.3</ele>
        <time>2016-12-17T14:01:56Z</time>
      </trkpt>
      <trkpt lat="42.45109" lon="0.20688">
        <ele>804.8</ele>
        <time>2016-12-17T14:01:57Z</time>
      </trkpt>
      <trkpt lat="42.45107" lon="0.20689">
        <ele>804.8</ele>
        <time>2016-12-17T14:01:58Z</time>
      </trkpt>
      <trkpt lat="42.45106" lon="0.20691">
        <ele>804.8</ele>
        <time>2016-12-17T14:01:59Z</time>
      </trkpt>
      <trkpt lat="42.45105" lon="0.20692">
        <ele>805.7</ele>
        <time>2016-12-17T14:02:00Z</time>
      </trkpt>
      <trkpt lat="42.45103" lon="0.20695">
        <ele>805.7</ele>
        <time>2016-12-17T14:02:02Z</time>
      </trkpt>
      <trkpt lat="42.45102" lon="0.20696">
        <ele>805.7</ele>
        <time>2016-12-17T14:02:03Z</time>
      </trkpt>
      <trkpt lat="42.45098" lon="0.20723">
        <ele>807.6</ele>
        <time>2016-12-17T14:02:15Z</time>
      </trkpt>
      <trkpt lat="42.45094" lon="0.20751">
        <ele>809.1</ele>
        <time>2016-12-17T14:02:29Z</time>
      </trkpt>
      <trkpt lat="42.45098" lon="0.20778">
        <ele>811</ele>
        <time>2016-12-17T14:02:42Z</time>
      </trkpt>
      <trkpt lat="42.45097" lon="0.2078">
        <ele>811.5</ele>
        <time>2016-12-17T14:02:43Z</time>
      </trkpt>
      <trkpt lat="42.45096" lon="0.20782">
        <ele>811.5</ele>
        <time>2016-12-17T14:02:44Z</time>
      </trkpt>
      <trkpt lat="42.45095" lon="0.20783">
        <ele>812</ele>
        <time>2016-12-17T14:02:45Z</time>
      </trkpt>
      <trkpt lat="42.45095" lon="0.20785">
        <ele>812</ele>
        <time>2016-12-17T14:02:46Z</time>
      </trkpt>
      <trkpt lat="42.45094" lon="0.20787">
        <ele>812.5</ele>
        <time>2016-12-17T14:02:47Z</time>
      </trkpt>
      <trkpt lat="42.45093" lon="0.2079">
        <ele>812.9</ele>
        <time>2016-12-17T14:02:49Z</time>
      </trkpt>
      <trkpt lat="42.45092" lon="0.20791">
        <ele>813.9</ele>
        <time>2016-12-17T14:02:50Z</time>
      </trkpt>
      <trkpt lat="42.45091" lon="0.20793">
        <ele>813.9</ele>
        <time>2016-12-17T14:02:51Z</time>
      </trkpt>
      <trkpt lat="42.45089" lon="0.20803">
        <ele>815.8</ele>
        <time>2016-12-17T14:02:57Z</time>
      </trkpt>
      <trkpt lat="42.45088" lon="0.20804">
        <ele>815.8</ele>
        <time>2016-12-17T14:02:58Z</time>
      </trkpt>
      <trkpt lat="42.45087" lon="0.20806">
        <ele>816.3</ele>
        <time>2016-12-17T14:02:59Z</time>
      </trkpt>
      <trkpt lat="42.45086" lon="0.20807">
        <ele>816.3</ele>
        <time>2016-12-17T14:03:00Z</time>
      </trkpt>
      <trkpt lat="42.45085" lon="0.20809">
        <ele>816.8</ele>
        <time>2016-12-17T14:03:01Z</time>
      </trkpt>
      <trkpt lat="42.45082" lon="0.20826">
        <ele>818.7</ele>
        <time>2016-12-17T14:03:11Z</time>
      </trkpt>
      <trkpt lat="42.45083" lon="0.20825">
        <ele>819.2</ele>
        <time>2016-12-17T14:03:27Z</time>
      </trkpt>
      <trkpt lat="42.45079" lon="0.20827">
        <ele>819.7</ele>
        <time>2016-12-17T14:04:04Z</time>
      </trkpt>
      <trkpt lat="42.45074" lon="0.20827">
        <ele>820.6</ele>
        <time>2016-12-17T14:04:16Z</time>
      </trkpt>
      <trkpt lat="42.45071" lon="0.20829">
        <ele>820.6</ele>
        <time>2016-12-17T14:04:21Z</time>
      </trkpt>
      <trkpt lat="42.4507" lon="0.2083">
        <ele>820.6</ele>
        <time>2016-12-17T14:04:22Z</time>
      </trkpt>
      <trkpt lat="42.45068" lon="0.20831">
        <ele>821.1</ele>
        <time>2016-12-17T14:04:23Z</time>
      </trkpt>
      <trkpt lat="42.4505" lon="0.20843">
        <ele>824</ele>
        <time>2016-12-17T14:04:37Z</time>
      </trkpt>
      <trkpt lat="42.45039" lon="0.20842">
        <ele>825.9</ele>
        <time>2016-12-17T14:04:45Z</time>
      </trkpt>
      <trkpt lat="42.45037" lon="0.20843">
        <ele>825.9</ele>
        <time>2016-12-17T14:04:46Z</time>
      </trkpt>
      <trkpt lat="42.45036" lon="0.20843">
        <ele>825.9</ele>
        <time>2016-12-17T14:04:47Z</time>
      </trkpt>
      <trkpt lat="42.45035" lon="0.20844">
        <ele>826.4</ele>
        <time>2016-12-17T14:04:48Z</time>
      </trkpt>
      <trkpt lat="42.45033" lon="0.20845">
        <ele>826.4</ele>
        <time>2016-12-17T14:04:49Z</time>
      </trkpt>
      <trkpt lat="42.45032" lon="0.20846">
        <ele>826.9</ele>
        <time>2016-12-17T14:04:50Z</time>
      </trkpt>
      <trkpt lat="42.45031" lon="0.20846">
        <ele>826.9</ele>
        <time>2016-12-17T14:04:51Z</time>
      </trkpt>
      <trkpt lat="42.4503" lon="0.20847">
        <ele>827.8</ele>
        <time>2016-12-17T14:04:52Z</time>
      </trkpt>
      <trkpt lat="42.45023" lon="0.20872">
        <ele>829.3</ele>
        <time>2016-12-17T14:05:07Z</time>
      </trkpt>
      <trkpt lat="42.45022" lon="0.20902">
        <ele>830.2</ele>
        <time>2016-12-17T14:05:22Z</time>
      </trkpt>
      <trkpt lat="42.45023" lon="0.20925">
        <ele>833.1</ele>
        <time>2016-12-17T14:05:34Z</time>
      </trkpt>
      <trkpt lat="42.45032" lon="0.2095">
        <ele>835.5</ele>
        <time>2016-12-17T14:05:48Z</time>
      </trkpt>
      <trkpt lat="42.45033" lon="0.20954">
        <ele>836.5</ele>
        <time>2016-12-17T14:05:50Z</time>
      </trkpt>
      <trkpt lat="42.45033" lon="0.20957">
        <ele>836.5</ele>
        <time>2016-12-17T14:05:51Z</time>
      </trkpt>
      <trkpt lat="42.45033" lon="0.20959">
        <ele>836.5</ele>
        <time>2016-12-17T14:05:52Z</time>
      </trkpt>
      <trkpt lat="42.45032" lon="0.20961">
        <ele>836.5</ele>
        <time>2016-12-17T14:05:53Z</time>
      </trkpt>
      <trkpt lat="42.45032" lon="0.20964">
        <ele>836.5</ele>
        <time>2016-12-17T14:05:54Z</time>
      </trkpt>
      <trkpt lat="42.45031" lon="0.20972">
        <ele>837</ele>
        <time>2016-12-17T14:05:58Z</time>
      </trkpt>
      <trkpt lat="42.4503" lon="0.20974">
        <ele>837</ele>
        <time>2016-12-17T14:05:59Z</time>
      </trkpt>
      <trkpt lat="42.45024" lon="0.21001">
        <ele>837.9</ele>
        <time>2016-12-17T14:06:13Z</time>
      </trkpt>
      <trkpt lat="42.45024" lon="0.21003">
        <ele>837.9</ele>
        <time>2016-12-17T14:06:14Z</time>
      </trkpt>
      <trkpt lat="42.45023" lon="0.21005">
        <ele>837.9</ele>
        <time>2016-12-17T14:06:15Z</time>
      </trkpt>
      <trkpt lat="42.45023" lon="0.21007">
        <ele>837.9</ele>
        <time>2016-12-17T14:06:16Z</time>
      </trkpt>
      <trkpt lat="42.45023" lon="0.21009">
        <ele>837.9</ele>
        <time>2016-12-17T14:06:17Z</time>
      </trkpt>
      <trkpt lat="42.45023" lon="0.21011">
        <ele>837.9</ele>
        <time>2016-12-17T14:06:18Z</time>
      </trkpt>
      <trkpt lat="42.45023" lon="0.21013">
        <ele>837.9</ele>
        <time>2016-12-17T14:06:19Z</time>
      </trkpt>
      <trkpt lat="42.45022" lon="0.21015">
        <ele>838.9</ele>
        <time>2016-12-17T14:06:20Z</time>
      </trkpt>
      <trkpt lat="42.45021" lon="0.21018">
        <ele>839.4</ele>
        <time>2016-12-17T14:06:22Z</time>
      </trkpt>
      <trkpt lat="42.4502" lon="0.2102">
        <ele>839.4</ele>
        <time>2016-12-17T14:06:23Z</time>
      </trkpt>
      <trkpt lat="42.4502" lon="0.21022">
        <ele>839.4</ele>
        <time>2016-12-17T14:06:24Z</time>
      </trkpt>
      <trkpt lat="42.45019" lon="0.21023">
        <ele>839.4</ele>
        <time>2016-12-17T14:06:25Z</time>
      </trkpt>
      <trkpt lat="42.45019" lon="0.21026">
        <ele>839.4</ele>
        <time>2016-12-17T14:06:26Z</time>
      </trkpt>
      <trkpt lat="42.45018" lon="0.21028">
        <ele>839.4</ele>
        <time>2016-12-17T14:06:27Z</time>
      </trkpt>
      <trkpt lat="42.45018" lon="0.2103">
        <ele>840.3</ele>
        <time>2016-12-17T14:06:28Z</time>
      </trkpt>
      <trkpt lat="42.45013" lon="0.21054">
        <ele>842.7</ele>
        <time>2016-12-17T14:06:39Z</time>
      </trkpt>
      <trkpt lat="42.4501" lon="0.21076">
        <ele>846.1</ele>
        <time>2016-12-17T14:06:51Z</time>
      </trkpt>
      <trkpt lat="42.45022" lon="0.21086">
        <ele>849</ele>
        <time>2016-12-17T14:07:00Z</time>
      </trkpt>
      <trkpt lat="42.45031" lon="0.21089">
        <ele>849.5</ele>
        <time>2016-12-17T14:07:13Z</time>
      </trkpt>
      <trkpt lat="42.45032" lon="0.21088">
        <ele>849.5</ele>
        <time>2016-12-17T14:07:49Z</time>
      </trkpt>
      <trkpt lat="42.45033" lon="0.21089">
        <ele>849.5</ele>
        <time>2016-12-17T14:08:22Z</time>
      </trkpt>
      <trkpt lat="42.45032" lon="0.21089">
        <ele>849.5</ele>
        <time>2016-12-17T14:09:07Z</time>
      </trkpt>
      <trkpt lat="42.45033" lon="0.21089">
        <ele>849.5</ele>
        <time>2016-12-17T14:09:44Z</time>
      </trkpt>
      <trkpt lat="42.45033" lon="0.21087">
        <ele>849.5</ele>
        <time>2016-12-17T14:10:21Z</time>
      </trkpt>
      <trkpt lat="42.45033" lon="0.21086">
        <ele>850.4</ele>
        <time>2016-12-17T14:10:42Z</time>
      </trkpt>
      <trkpt lat="42.45036" lon="0.21088">
        <ele>851.9</ele>
        <time>2016-12-17T14:10:51Z</time>
      </trkpt>
      <trkpt lat="42.45039" lon="0.21091">
        <ele>851.9</ele>
        <time>2016-12-17T14:11:01Z</time>
      </trkpt>
      <trkpt lat="42.45041" lon="0.21093">
        <ele>851.9</ele>
        <time>2016-12-17T14:11:05Z</time>
      </trkpt>
      <trkpt lat="42.45042" lon="0.21094">
        <ele>852.3</ele>
        <time>2016-12-17T14:11:06Z</time>
      </trkpt>
      <trkpt lat="42.45044" lon="0.21095">
        <ele>852.3</ele>
        <time>2016-12-17T14:11:07Z</time>
      </trkpt>
      <trkpt lat="42.45045" lon="0.21096">
        <ele>852.8</ele>
        <time>2016-12-17T14:11:08Z</time>
      </trkpt>
      <trkpt lat="42.45046" lon="0.21096">
        <ele>852.8</ele>
        <time>2016-12-17T14:11:09Z</time>
      </trkpt>
      <trkpt lat="42.45048" lon="0.21096">
        <ele>853.8</ele>
        <time>2016-12-17T14:11:10Z</time>
      </trkpt>
      <trkpt lat="42.45049" lon="0.21097">
        <ele>853.8</ele>
        <time>2016-12-17T14:11:11Z</time>
      </trkpt>
      <trkpt lat="42.4505" lon="0.21098">
        <ele>853.8</ele>
        <time>2016-12-17T14:11:12Z</time>
      </trkpt>
      <trkpt lat="42.45052" lon="0.211">
        <ele>853.8</ele>
        <time>2016-12-17T14:11:13Z</time>
      </trkpt>
      <trkpt lat="42.45067" lon="0.21116">
        <ele>854.3</ele>
        <time>2016-12-17T14:11:26Z</time>
      </trkpt>
      <trkpt lat="42.45081" lon="0.21134">
        <ele>855.2</ele>
        <time>2016-12-17T14:11:39Z</time>
      </trkpt>
      <trkpt lat="42.45098" lon="0.21148">
        <ele>857.2</ele>
        <time>2016-12-17T14:11:51Z</time>
      </trkpt>
      <trkpt lat="42.45105" lon="0.21157">
        <ele>857.2</ele>
        <time>2016-12-17T14:11:57Z</time>
      </trkpt>
      <trkpt lat="42.45112" lon="0.21166">
        <ele>858.1</ele>
        <time>2016-12-17T14:12:03Z</time>
      </trkpt>
      <trkpt lat="42.45126" lon="0.21185">
        <ele>860.5</ele>
        <time>2016-12-17T14:12:17Z</time>
      </trkpt>
      <trkpt lat="42.45138" lon="0.2121">
        <ele>861.5</ele>
        <time>2016-12-17T14:12:31Z</time>
      </trkpt>
      <trkpt lat="42.4514" lon="0.21218">
        <ele>862</ele>
        <time>2016-12-17T14:12:35Z</time>
      </trkpt>
      <trkpt lat="42.45141" lon="0.21222">
        <ele>862.4</ele>
        <time>2016-12-17T14:12:37Z</time>
      </trkpt>
      <trkpt lat="42.45148" lon="0.21243">
        <ele>862.9</ele>
        <time>2016-12-17T14:12:49Z</time>
      </trkpt>
      <trkpt lat="42.45152" lon="0.21264">
        <ele>865.8</ele>
        <time>2016-12-17T14:12:59Z</time>
      </trkpt>
      <trkpt lat="42.45156" lon="0.21279">
        <ele>866.8</ele>
        <time>2016-12-17T14:13:06Z</time>
      </trkpt>
      <trkpt lat="42.45153" lon="0.21298">
        <ele>868.2</ele>
        <time>2016-12-17T14:13:16Z</time>
      </trkpt>
      <trkpt lat="42.45143" lon="0.21317">
        <ele>870.6</ele>
        <time>2016-12-17T14:13:28Z</time>
      </trkpt>
      <trkpt lat="42.45137" lon="0.21337">
        <ele>872.5</ele>
        <time>2016-12-17T14:13:40Z</time>
      </trkpt>
      <trkpt lat="42.45137" lon="0.21343">
        <ele>874</ele>
        <time>2016-12-17T14:13:52Z</time>
      </trkpt>
      <trkpt lat="42.45136" lon="0.21344">
        <ele>874.5</ele>
        <time>2016-12-17T14:14:00Z</time>
      </trkpt>
      <trkpt lat="42.45137" lon="0.21359">
        <ele>875.9</ele>
        <time>2016-12-17T14:14:11Z</time>
      </trkpt>
      <trkpt lat="42.45137" lon="0.21363">
        <ele>875.9</ele>
        <time>2016-12-17T14:14:13Z</time>
      </trkpt>
      <trkpt lat="42.45138" lon="0.21383">
        <ele>877.8</ele>
        <time>2016-12-17T14:14:26Z</time>
      </trkpt>
      <trkpt lat="42.45144" lon="0.21453">
        <ele>877.3</ele>
        <time>2016-12-17T14:14:26Z</time>
      </trkpt>
      <trkpt lat="42.45175" lon="0.21508">
        <ele>877.6</ele>
        <time>2016-12-17T14:14:26Z</time>
      </trkpt>
      <trkpt lat="42.45234" lon="0.2154">
        <ele>887.1</ele>
        <time>2016-12-17T14:14:26Z</time>
      </trkpt>
      <trkpt lat="42.45243" lon="0.21568">
        <ele>898.9</ele>
        <time>2016-12-17T14:14:26Z</time>
      </trkpt>
      <trkpt lat="42.45298" lon="0.2159">
        <ele>908.1</ele>
        <time>2016-12-17T14:14:26Z</time>
      </trkpt>
      <trkpt lat="42.45311" lon="0.21644">
        <ele>911.3</ele>
        <time>2016-12-17T14:14:26Z</time>
      </trkpt>
      <trkpt lat="42.45396" lon="0.21778">
        <ele>941.7</ele>
        <time>2016-12-17T14:14:26Z</time>
      </trkpt>
      <trkpt lat="42.45397" lon="0.21779">
        <ele>949.4</ele>
        <time>2017-03-18T13:00:05Z</time>
      </trkpt>
      <trkpt lat="42.45411" lon="0.21753">
        <ele>948</ele>
        <time>2017-03-18T13:00:11Z</time>
      </trkpt>
      <trkpt lat="42.45426" lon="0.21713">
        <ele>945.1</ele>
        <time>2017-03-18T13:00:22Z</time>
      </trkpt>
      <trkpt lat="42.45437" lon="0.21672">
        <ele>941.8</ele>
        <time>2017-03-18T13:00:30Z</time>
      </trkpt>
      <trkpt lat="42.45439" lon="0.21667">
        <ele>940.8</ele>
        <time>2017-03-18T13:00:31Z</time>
      </trkpt>
      <trkpt lat="42.45453" lon="0.21647">
        <ele>940.8</ele>
        <time>2017-03-18T13:00:35Z</time>
      </trkpt>
      <trkpt lat="42.45479" lon="0.21604">
        <ele>940.8</ele>
        <time>2017-03-18T13:00:47Z</time>
      </trkpt>
      <trkpt lat="42.45491" lon="0.21577">
        <ele>940.8</ele>
        <time>2017-03-18T13:00:57Z</time>
      </trkpt>
      <trkpt lat="42.4549" lon="0.21574">
        <ele>940.8</ele>
        <time>2017-03-18T13:00:59Z</time>
      </trkpt>
      <trkpt lat="42.45476" lon="0.21565">
        <ele>941.8</ele>
        <time>2017-03-18T13:01:09Z</time>
      </trkpt>
      <trkpt lat="42.45458" lon="0.2155">
        <ele>943.7</ele>
        <time>2017-03-18T13:01:19Z</time>
      </trkpt>
      <trkpt lat="42.4543" lon="0.21517">
        <ele>944.2</ele>
        <time>2017-03-18T13:01:34Z</time>
      </trkpt>
      <trkpt lat="42.45401" lon="0.21507">
        <ele>947</ele>
        <time>2017-03-18T13:01:45Z</time>
      </trkpt>
      <trkpt lat="42.45385" lon="0.21495">
        <ele>948</ele>
        <time>2017-03-18T13:01:52Z</time>
      </trkpt>
      <trkpt lat="42.4538" lon="0.21453">
        <ele>948.5</ele>
        <time>2017-03-18T13:02:05Z</time>
      </trkpt>
      <trkpt lat="42.45385" lon="0.21404">
        <ele>948.5</ele>
        <time>2017-03-18T13:02:18Z</time>
      </trkpt>
      <trkpt lat="42.45374" lon="0.21364">
        <ele>949.4</ele>
        <time>2017-03-18T13:02:28Z</time>
      </trkpt>
      <trkpt lat="42.45359" lon="0.21342">
        <ele>949.9</ele>
        <time>2017-03-18T13:02:34Z</time>
      </trkpt>
      <trkpt lat="42.4537" lon="0.2134">
        <ele>951.8</ele>
        <time>2017-03-18T13:02:41Z</time>
      </trkpt>
      <trkpt lat="42.45402" lon="0.21369">
        <ele>955.2</ele>
        <time>2017-03-18T13:02:54Z</time>
      </trkpt>
      <trkpt lat="42.45417" lon="0.21422">
        <ele>958.1</ele>
        <time>2017-03-18T13:03:08Z</time>
      </trkpt>
      <trkpt lat="42.45418" lon="0.21425">
        <ele>958.6</ele>
        <time>2017-03-18T13:03:09Z</time>
      </trkpt>
      <trkpt lat="42.45451" lon="0.21441">
        <ele>961.5</ele>
        <time>2017-03-18T13:03:23Z</time>
      </trkpt>
      <trkpt lat="42.45481" lon="0.21452">
        <ele>963.9</ele>
        <time>2017-03-18T13:03:36Z</time>
      </trkpt>
      <trkpt lat="42.4549" lon="0.21449">
        <ele>964.3</ele>
        <time>2017-03-18T13:03:40Z</time>
      </trkpt>
      <trkpt lat="42.45517" lon="0.21438">
        <ele>968.2</ele>
        <time>2017-03-18T13:03:51Z</time>
      </trkpt>
      <trkpt lat="42.45531" lon="0.21434">
        <ele>968.7</ele>
        <time>2017-03-18T13:04:03Z</time>
      </trkpt>
      <trkpt lat="42.45546" lon="0.21438">
        <ele>971.1</ele>
        <time>2017-03-18T13:19:26Z</time>
      </trkpt>
      <trkpt lat="42.45552" lon="0.21441">
        <ele>972</ele>
        <time>2017-03-18T13:19:34Z</time>
      </trkpt>
      <trkpt lat="42.45563" lon="0.21444">
        <ele>972</ele>
        <time>2017-03-18T13:19:46Z</time>
      </trkpt>
      <trkpt lat="42.45567" lon="0.21447">
        <ele>972</ele>
        <time>2017-03-18T13:20:00Z</time>
      </trkpt>
      <trkpt lat="42.45575" lon="0.21448">
        <ele>972</ele>
        <time>2017-03-18T13:20:05Z</time>
      </trkpt>
      <trkpt lat="42.45588" lon="0.21446">
        <ele>972.5</ele>
        <time>2017-03-18T13:20:19Z</time>
      </trkpt>
      <trkpt lat="42.45594" lon="0.21449">
        <ele>972.5</ele>
        <time>2017-03-18T13:20:25Z</time>
      </trkpt>
      <trkpt lat="42.45602" lon="0.21449">
        <ele>973.5</ele>
        <time>2017-03-18T13:20:31Z</time>
      </trkpt>
      <trkpt lat="42.45608" lon="0.21451">
        <ele>973.5</ele>
        <time>2017-03-18T13:20:37Z</time>
      </trkpt>
      <trkpt lat="42.45614" lon="0.21451">
        <ele>974</ele>
        <time>2017-03-18T13:20:44Z</time>
      </trkpt>
      <trkpt lat="42.45622" lon="0.21452">
        <ele>974</ele>
        <time>2017-03-18T13:20:55Z</time>
      </trkpt>
      <trkpt lat="42.4563" lon="0.21456">
        <ele>974.4</ele>
        <time>2017-03-18T13:21:01Z</time>
      </trkpt>
      <trkpt lat="42.45636" lon="0.21457">
        <ele>974.4</ele>
        <time>2017-03-18T13:21:08Z</time>
      </trkpt>
      <trkpt lat="42.45643" lon="0.21459">
        <ele>974.9</ele>
        <time>2017-03-18T13:21:27Z</time>
      </trkpt>
      <trkpt lat="42.45645" lon="0.21461">
        <ele>975.4</ele>
        <time>2017-03-18T13:21:36Z</time>
      </trkpt>
      <trkpt lat="42.4565" lon="0.21467">
        <ele>976.4</ele>
        <time>2017-03-18T13:21:48Z</time>
      </trkpt>
      <trkpt lat="42.45656" lon="0.21472">
        <ele>976.4</ele>
        <time>2017-03-18T13:21:58Z</time>
      </trkpt>
      <trkpt lat="42.45665" lon="0.21478">
        <ele>976.4</ele>
        <time>2017-03-18T13:22:14Z</time>
      </trkpt>
      <trkpt lat="42.45672" lon="0.21479">
        <ele>977.8</ele>
        <time>2017-03-18T13:22:24Z</time>
      </trkpt>
      <trkpt lat="42.45681" lon="0.21482">
        <ele>978.8</ele>
        <time>2017-03-18T13:22:37Z</time>
      </trkpt>
      <trkpt lat="42.4569" lon="0.21487">
        <ele>979.7</ele>
        <time>2017-03-18T13:22:49Z</time>
      </trkpt>
      <trkpt lat="42.45701" lon="0.21496">
        <ele>981.6</ele>
        <time>2017-03-18T13:23:04Z</time>
      </trkpt>
      <trkpt lat="42.45705" lon="0.215">
        <ele>982.1</ele>
        <time>2017-03-18T13:23:09Z</time>
      </trkpt>
      <trkpt lat="42.45709" lon="0.21505">
        <ele>982.6</ele>
        <time>2017-03-18T13:23:15Z</time>
      </trkpt>
      <trkpt lat="42.45719" lon="0.21514">
        <ele>983.6</ele>
        <time>2017-03-18T13:23:29Z</time>
      </trkpt>
      <trkpt lat="42.45729" lon="0.21522">
        <ele>985</ele>
        <time>2017-03-18T13:23:43Z</time>
      </trkpt>
      <trkpt lat="42.45741" lon="0.21525">
        <ele>986.5</ele>
        <time>2017-03-18T13:23:56Z</time>
      </trkpt>
      <trkpt lat="42.45747" lon="0.21524">
        <ele>986.9</ele>
        <time>2017-03-18T13:24:07Z</time>
      </trkpt>
      <trkpt lat="42.4576" lon="0.21525">
        <ele>988.8</ele>
        <time>2017-03-18T13:24:22Z</time>
      </trkpt>
      <trkpt lat="42.45772" lon="0.21526">
        <ele>989.8</ele>
        <time>2017-03-18T13:24:34Z</time>
      </trkpt>
      <trkpt lat="42.4578" lon="0.21526">
        <ele>990.8</ele>
        <time>2017-03-18T13:24:44Z</time>
      </trkpt>
      <trkpt lat="42.45789" lon="0.21528">
        <ele>991.3</ele>
        <time>2017-03-18T13:24:56Z</time>
      </trkpt>
      <trkpt lat="42.458" lon="0.2153">
        <ele>993.2</ele>
        <time>2017-03-18T13:25:09Z</time>
      </trkpt>
      <trkpt lat="42.4581" lon="0.21533">
        <ele>993.7</ele>
        <time>2017-03-18T13:25:21Z</time>
      </trkpt>
      <trkpt lat="42.45823" lon="0.21539">
        <ele>995.1</ele>
        <time>2017-03-18T13:25:33Z</time>
      </trkpt>
      <trkpt lat="42.45835" lon="0.21542">
        <ele>996.1</ele>
        <time>2017-03-18T13:25:44Z</time>
      </trkpt>
      <trkpt lat="42.45848" lon="0.21544">
        <ele>997</ele>
        <time>2017-03-18T13:25:58Z</time>
      </trkpt>
      <trkpt lat="42.45851" lon="0.21544">
        <ele>998</ele>
        <time>2017-03-18T13:26:06Z</time>
      </trkpt>
      <trkpt lat="42.4585" lon="0.21546">
        <ele>997</ele>
        <time>2017-03-18T13:26:29Z</time>
      </trkpt>
      <trkpt lat="42.45856" lon="0.2155">
        <ele>998.5</ele>
        <time>2017-03-18T13:26:41Z</time>
      </trkpt>
      <trkpt lat="42.45866" lon="0.21559">
        <ele>1000.9</ele>
        <time>2017-03-18T13:26:54Z</time>
      </trkpt>
      <trkpt lat="42.45873" lon="0.21568">
        <ele>1001.3</ele>
        <time>2017-03-18T13:27:02Z</time>
      </trkpt>
      <trkpt lat="42.45883" lon="0.21576">
        <ele>1004.2</ele>
        <time>2017-03-18T13:27:20Z</time>
      </trkpt>
      <trkpt lat="42.45889" lon="0.21581">
        <ele>1005.7</ele>
        <time>2017-03-18T13:27:27Z</time>
      </trkpt>
      <trkpt lat="42.45894" lon="0.21585">
        <ele>1006.6</ele>
        <time>2017-03-18T13:27:55Z</time>
      </trkpt>
      <trkpt lat="42.45901" lon="0.21593">
        <ele>1007.1</ele>
        <time>2017-03-18T13:28:18Z</time>
      </trkpt>
      <trkpt lat="42.45911" lon="0.21599">
        <ele>1007.6</ele>
        <time>2017-03-18T13:28:30Z</time>
      </trkpt>
      <trkpt lat="42.45922" lon="0.21602">
        <ele>1009</ele>
        <time>2017-03-18T13:28:42Z</time>
      </trkpt>
      <trkpt lat="42.45934" lon="0.21612">
        <ele>1011.4</ele>
        <time>2017-03-18T13:28:58Z</time>
      </trkpt>
      <trkpt lat="42.45947" lon="0.21621">
        <ele>1012.9</ele>
        <time>2017-03-18T13:29:12Z</time>
      </trkpt>
      <trkpt lat="42.45961" lon="0.21628">
        <ele>1014.8</ele>
        <time>2017-03-18T13:29:26Z</time>
      </trkpt>
      <trkpt lat="42.45966" lon="0.21623">
        <ele>1015.3</ele>
        <time>2017-03-18T13:29:39Z</time>
      </trkpt>
      <trkpt lat="42.45968" lon="0.21621">
        <ele>1015.8</ele>
        <time>2017-03-18T13:29:41Z</time>
      </trkpt>
      <trkpt lat="42.45973" lon="0.21613">
        <ele>1016.2</ele>
        <time>2017-03-18T13:29:45Z</time>
      </trkpt>
      <trkpt lat="42.45972" lon="0.21615">
        <ele>1012.9</ele>
        <time>2016-12-10T10:51:40Z</time>
      </trkpt>
      <trkpt lat="42.45973" lon="0.21616">
        <ele>1012.9</ele>
        <time>2016-12-10T10:51:41Z</time>
      </trkpt>
      <trkpt lat="42.45975" lon="0.21617">
        <ele>1013.4</ele>
        <time>2016-12-10T10:51:42Z</time>
      </trkpt>
      <trkpt lat="42.45976" lon="0.21617">
        <ele>1013.4</ele>
        <time>2016-12-10T10:51:43Z</time>
      </trkpt>
      <trkpt lat="42.45978" lon="0.21618">
        <ele>1013.4</ele>
        <time>2016-12-10T10:51:44Z</time>
      </trkpt>
      <trkpt lat="42.45979" lon="0.21619">
        <ele>1013.8</ele>
        <time>2016-12-10T10:51:45Z</time>
      </trkpt>
      <trkpt lat="42.4598" lon="0.21619">
        <ele>1013.8</ele>
        <time>2016-12-10T10:51:46Z</time>
      </trkpt>
      <trkpt lat="42.45982" lon="0.2162">
        <ele>1014.3</ele>
        <time>2016-12-10T10:51:47Z</time>
      </trkpt>
      <trkpt lat="42.45983" lon="0.21621">
        <ele>1014.3</ele>
        <time>2016-12-10T10:51:48Z</time>
      </trkpt>
      <trkpt lat="42.45984" lon="0.21623">
        <ele>1014.3</ele>
        <time>2016-12-10T10:51:49Z</time>
      </trkpt>
      <trkpt lat="42.45999" lon="0.21637">
        <ele>1016.2</ele>
        <time>2016-12-10T10:52:03Z</time>
      </trkpt>
      <trkpt lat="42.46" lon="0.21639">
        <ele>1016.7</ele>
        <time>2016-12-10T10:52:04Z</time>
      </trkpt>
      <trkpt lat="42.46001" lon="0.21639">
        <ele>1016.7</ele>
        <time>2016-12-10T10:52:05Z</time>
      </trkpt>
      <trkpt lat="42.46002" lon="0.2164">
        <ele>1017.2</ele>
        <time>2016-12-10T10:52:06Z</time>
      </trkpt>
      <trkpt lat="42.46004" lon="0.21641">
        <ele>1017.2</ele>
        <time>2016-12-10T10:52:07Z</time>
      </trkpt>
      <trkpt lat="42.46005" lon="0.21641">
        <ele>1017.2</ele>
        <time>2016-12-10T10:52:08Z</time>
      </trkpt>
      <trkpt lat="42.46006" lon="0.21642">
        <ele>1017.2</ele>
        <time>2016-12-10T10:52:09Z</time>
      </trkpt>
      <trkpt lat="42.46008" lon="0.21642">
        <ele>1017.2</ele>
        <time>2016-12-10T10:52:10Z</time>
      </trkpt>
      <trkpt lat="42.46009" lon="0.21643">
        <ele>1017.2</ele>
        <time>2016-12-10T10:52:11Z</time>
      </trkpt>
      <trkpt lat="42.46011" lon="0.21643">
        <ele>1017.7</ele>
        <time>2016-12-10T10:52:13Z</time>
      </trkpt>
      <trkpt lat="42.46012" lon="0.21642">
        <ele>1017.7</ele>
        <time>2016-12-10T10:52:14Z</time>
      </trkpt>
      <trkpt lat="42.46014" lon="0.21642">
        <ele>1017.7</ele>
        <time>2016-12-10T10:52:15Z</time>
      </trkpt>
      <trkpt lat="42.46026" lon="0.21641">
        <ele>1019.1</ele>
        <time>2016-12-10T10:52:23Z</time>
      </trkpt>
      <trkpt lat="42.46031" lon="0.21645">
        <ele>1020.6</ele>
        <time>2016-12-10T10:52:29Z</time>
      </trkpt>
      <trkpt lat="42.46038" lon="0.21663">
        <ele>1023.9</ele>
        <time>2016-12-10T10:52:41Z</time>
      </trkpt>
      <trkpt lat="42.46049" lon="0.21683">
        <ele>1026.8</ele>
        <time>2016-12-10T10:52:56Z</time>
      </trkpt>
      <trkpt lat="42.46057" lon="0.21702">
        <ele>1028.3</ele>
        <time>2016-12-10T10:53:10Z</time>
      </trkpt>
      <trkpt lat="42.46067" lon="0.2172">
        <ele>1031.2</ele>
        <time>2016-12-10T10:53:23Z</time>
      </trkpt>
      <trkpt lat="42.46082" lon="0.21738">
        <ele>1033.1</ele>
        <time>2016-12-10T10:53:40Z</time>
      </trkpt>
      <trkpt lat="42.46094" lon="0.21751">
        <ele>1036.4</ele>
        <time>2016-12-10T10:53:49Z</time>
      </trkpt>
      <trkpt lat="42.46101" lon="0.2176">
        <ele>1037.9</ele>
        <time>2016-12-10T10:53:56Z</time>
      </trkpt>
      <trkpt lat="42.46101" lon="0.21761">
        <ele>1037.9</ele>
        <time>2016-12-10T10:53:57Z</time>
      </trkpt>
      <trkpt lat="42.46102" lon="0.21763">
        <ele>1037.9</ele>
        <time>2016-12-10T10:53:58Z</time>
      </trkpt>
      <trkpt lat="42.46102" lon="0.21765">
        <ele>1038.4</ele>
        <time>2016-12-10T10:53:59Z</time>
      </trkpt>
      <trkpt lat="42.4611" lon="0.21782">
        <ele>1041.2</ele>
        <time>2016-12-10T10:54:12Z</time>
      </trkpt>
      <trkpt lat="42.46111" lon="0.21783">
        <ele>1042.2</ele>
        <time>2016-12-10T10:54:26Z</time>
      </trkpt>
      <trkpt lat="42.46116" lon="0.21785">
        <ele>1043.2</ele>
        <time>2016-12-10T10:54:39Z</time>
      </trkpt>
      <trkpt lat="42.46122" lon="0.21779">
        <ele>1044.1</ele>
        <time>2016-12-10T10:54:51Z</time>
      </trkpt>
      <trkpt lat="42.46132" lon="0.21781">
        <ele>1046.5</ele>
        <time>2016-12-10T10:55:09Z</time>
      </trkpt>
      <trkpt lat="42.46141" lon="0.21785">
        <ele>1048</ele>
        <time>2016-12-10T10:55:24Z</time>
      </trkpt>
      <trkpt lat="42.46148" lon="0.21791">
        <ele>1049.4</ele>
        <time>2016-12-10T10:55:38Z</time>
      </trkpt>
      <trkpt lat="42.46161" lon="0.21789">
        <ele>1052.3</ele>
        <time>2016-12-10T10:55:55Z</time>
      </trkpt>
      <trkpt lat="42.46166" lon="0.21786">
        <ele>1053.3</ele>
        <time>2016-12-10T10:56:09Z</time>
      </trkpt>
      <trkpt lat="42.46168" lon="0.21787">
        <ele>1053.3</ele>
        <time>2016-12-10T10:56:21Z</time>
      </trkpt>
      <trkpt lat="42.46169" lon="0.21787">
        <ele>1053.3</ele>
        <time>2016-12-10T10:56:22Z</time>
      </trkpt>
      <trkpt lat="42.4617" lon="0.21789">
        <ele>1053.7</ele>
        <time>2016-12-10T10:56:24Z</time>
      </trkpt>
      <trkpt lat="42.46169" lon="0.21792">
        <ele>1053.7</ele>
        <time>2016-12-10T10:56:26Z</time>
      </trkpt>
      <trkpt lat="42.46169" lon="0.21794">
        <ele>1053.7</ele>
        <time>2016-12-10T10:56:27Z</time>
      </trkpt>
      <trkpt lat="42.46169" lon="0.21795">
        <ele>1054.2</ele>
        <time>2016-12-10T10:56:28Z</time>
      </trkpt>
      <trkpt lat="42.46166" lon="0.21801">
        <ele>1054.7</ele>
        <time>2016-12-10T10:56:31Z</time>
      </trkpt>
      <trkpt lat="42.46165" lon="0.21802">
        <ele>1054.7</ele>
        <time>2016-12-10T10:56:32Z</time>
      </trkpt>
      <trkpt lat="42.46165" lon="0.21803">
        <ele>1055.2</ele>
        <time>2016-12-10T10:56:33Z</time>
      </trkpt>
      <trkpt lat="42.46151" lon="0.2183">
        <ele>1056.2</ele>
        <time>2016-12-10T10:56:48Z</time>
      </trkpt>
      <trkpt lat="42.46156" lon="0.21834">
        <ele>1057.1</ele>
        <time>2016-12-10T10:56:52Z</time>
      </trkpt>
      <trkpt lat="42.46163" lon="0.21827">
        <ele>1058.1</ele>
        <time>2016-12-10T10:56:58Z</time>
      </trkpt>
      <trkpt lat="42.46169" lon="0.21827">
        <ele>1059</ele>
        <time>2016-12-10T10:57:02Z</time>
      </trkpt>
      <trkpt lat="42.46174" lon="0.21843">
        <ele>1060.9</ele>
        <time>2016-12-10T10:57:12Z</time>
      </trkpt>
      <trkpt lat="42.46175" lon="0.21861">
        <ele>1063.4</ele>
        <time>2016-12-10T10:57:21Z</time>
      </trkpt>
      <trkpt lat="42.46187" lon="0.21871">
        <ele>1066.2</ele>
        <time>2016-12-10T10:57:35Z</time>
      </trkpt>
      <trkpt lat="42.46188" lon="0.2187">
        <ele>1066.2</ele>
        <time>2016-12-10T10:57:36Z</time>
      </trkpt>
      <trkpt lat="42.46193" lon="0.21866">
        <ele>1067.2</ele>
        <time>2016-12-10T10:57:41Z</time>
      </trkpt>
      <trkpt lat="42.46198" lon="0.21868">
        <ele>1068.2</ele>
        <time>2016-12-10T10:57:45Z</time>
      </trkpt>
      <trkpt lat="42.46199" lon="0.21877">
        <ele>1069.1</ele>
        <time>2016-12-10T10:57:52Z</time>
      </trkpt>
      <trkpt lat="42.46202" lon="0.21889">
        <ele>1071.1</ele>
        <time>2016-12-10T10:58:00Z</time>
      </trkpt>
      <trkpt lat="42.46204" lon="0.21891">
        <ele>1071.5</ele>
        <time>2016-12-10T10:58:02Z</time>
      </trkpt>
      <trkpt lat="42.46218" lon="0.21889">
        <ele>1073.4</ele>
        <time>2016-12-10T10:58:14Z</time>
      </trkpt>
      <trkpt lat="42.46223" lon="0.21885">
        <ele>1074.4</ele>
        <time>2016-12-10T10:58:19Z</time>
      </trkpt>
      <trkpt lat="42.46239" lon="0.2187">
        <ele>1076.8</ele>
        <time>2016-12-10T10:58:35Z</time>
      </trkpt>
      <trkpt lat="42.46246" lon="0.21869">
        <ele>1078.3</ele>
        <time>2016-12-10T10:58:41Z</time>
      </trkpt>
      <trkpt lat="42.46249" lon="0.21879">
        <ele>1079.2</ele>
        <time>2016-12-10T10:58:48Z</time>
      </trkpt>
      <trkpt lat="42.46247" lon="0.21882">
        <ele>1079.7</ele>
        <time>2016-12-10T10:58:50Z</time>
      </trkpt>
      <trkpt lat="42.46242" lon="0.2191">
        <ele>1081.6</ele>
        <time>2016-12-10T10:59:05Z</time>
      </trkpt>
      <trkpt lat="42.46239" lon="0.21955">
        <ele>1083.5</ele>
        <time>2016-12-10T10:59:18Z</time>
      </trkpt>
      <trkpt lat="42.46238" lon="0.21956">
        <ele>1087.4</ele>
        <time>2017-03-18T12:26:40Z</time>
      </trkpt>
      <trkpt lat="42.46216" lon="0.21955">
        <ele>1086.9</ele>
        <time>2017-03-18T12:26:45Z</time>
      </trkpt>
      <trkpt lat="42.46197" lon="0.21952">
        <ele>1087.9</ele>
        <time>2017-03-18T12:26:51Z</time>
      </trkpt>
      <trkpt lat="42.46152" lon="0.21965">
        <ele>1089.3</ele>
        <time>2017-03-18T12:27:04Z</time>
      </trkpt>
      <trkpt lat="42.46101" lon="0.21983">
        <ele>1090.3</ele>
        <time>2017-03-18T12:27:19Z</time>
      </trkpt>
      <trkpt lat="42.46033" lon="0.21996">
        <ele>1091.7</ele>
        <time>2017-03-18T12:27:35Z</time>
      </trkpt>
      <trkpt lat="42.45999" lon="0.22004">
        <ele>1093.2</ele>
        <time>2017-03-18T12:38:54Z</time>
      </trkpt>
      <trkpt lat="42.45968" lon="0.22015">
        <ele>1095.1</ele>
        <time>2017-03-18T12:39:06Z</time>
      </trkpt>
      <trkpt lat="42.45925" lon="0.22035">
        <ele>1098</ele>
        <time>2017-03-18T12:39:21Z</time>
      </trkpt>
      <trkpt lat="42.45869" lon="0.22043">
        <ele>1098.9</ele>
        <time>2017-03-18T12:39:37Z</time>
      </trkpt>
      <trkpt lat="42.45805" lon="0.22048">
        <ele>1102.3</ele>
        <time>2017-03-18T12:39:54Z</time>
      </trkpt>
      <trkpt lat="42.45786" lon="0.22054">
        <ele>1102.3</ele>
        <time>2017-03-18T12:40:00Z</time>
      </trkpt>
      <trkpt lat="42.45784" lon="0.22091">
        <ele>1105.7</ele>
        <time>2017-03-18T12:40:10Z</time>
      </trkpt>
      <trkpt lat="42.4579" lon="0.22111">
        <ele>1109</ele>
        <time>2017-03-18T12:40:16Z</time>
      </trkpt>
      <trkpt lat="42.45791" lon="0.22117">
        <ele>1110.5</ele>
        <time>2017-03-18T12:40:18Z</time>
      </trkpt>
      <trkpt lat="42.45782" lon="0.22152">
        <ele>1114.3</ele>
        <time>2017-03-18T12:40:28Z</time>
      </trkpt>
      <trkpt lat="42.45773" lon="0.22193">
        <ele>1116.2</ele>
        <time>2017-03-18T12:40:39Z</time>
      </trkpt>
      <trkpt lat="42.45762" lon="0.22236">
        <ele>1118.6</ele>
        <time>2017-03-18T12:40:53Z</time>
      </trkpt>
      <trkpt lat="42.45754" lon="0.2227">
        <ele>1117.2</ele>
        <time>2017-03-18T12:41:01Z</time>
      </trkpt>
      <trkpt lat="42.45753" lon="0.22288">
        <ele>1116.2</ele>
        <time>2017-03-18T12:41:04Z</time>
      </trkpt>
      <trkpt lat="42.45753" lon="0.22331">
        <ele>1114.8</ele>
        <time>2017-03-18T12:41:12Z</time>
      </trkpt>
      <trkpt lat="42.45752" lon="0.22343">
        <ele>1113.8</ele>
        <time>2017-03-18T12:41:43Z</time>
      </trkpt>
      <trkpt lat="42.4575" lon="0.22363">
        <ele>1111.4</ele>
        <time>2017-03-18T12:41:51Z</time>
      </trkpt>
      <trkpt lat="42.45751" lon="0.22377">
        <ele>1110</ele>
        <time>2017-03-18T12:41:59Z</time>
      </trkpt>
      <trkpt lat="42.45751" lon="0.22377">
        <ele>1110</ele>
        <time>2017-03-18T12:42:08Z</time>
      </trkpt>
      <trkpt lat="42.45746" lon="0.22367">
        <ele>1107.1</ele>
        <time>2017-03-18T12:42:18Z</time>
      </trkpt>
      <trkpt lat="42.45742" lon="0.22364">
        <ele>1104.7</ele>
        <time>2017-03-18T12:42:32Z</time>
      </trkpt>
      <trkpt lat="42.45736" lon="0.22365">
        <ele>1101.8</ele>
        <time>2017-03-18T12:42:47Z</time>
      </trkpt>
      <trkpt lat="42.45732" lon="0.2236">
        <ele>1099.4</ele>
        <time>2017-03-18T12:42:55Z</time>
      </trkpt>
      <trkpt lat="42.45727" lon="0.22361">
        <ele>1098</ele>
        <time>2017-03-18T12:43:02Z</time>
      </trkpt>
      <trkpt lat="42.4572" lon="0.22353">
        <ele>1094.6</ele>
        <time>2017-03-18T12:43:15Z</time>
      </trkpt>
      <trkpt lat="42.4572" lon="0.22352">
        <ele>1094.6</ele>
        <time>2017-03-18T12:43:35Z</time>
      </trkpt>
      <trkpt lat="42.45721" lon="0.22352">
        <ele>1093.6</ele>
        <time>2017-03-18T12:44:03Z</time>
      </trkpt>
      <trkpt lat="42.45721" lon="0.22351">
        <ele>1093.2</ele>
        <time>2017-03-18T12:44:28Z</time>
      </trkpt>
      <trkpt lat="42.45721" lon="0.22351">
        <ele>1093.2</ele>
        <time>2017-03-18T12:44:58Z</time>
      </trkpt>
      <trkpt lat="42.4572" lon="0.22351">
        <ele>1093.2</ele>
        <time>2017-03-18T12:45:17Z</time>
      </trkpt>
      <trkpt lat="42.45721" lon="0.22351">
        <ele>1093.2</ele>
        <time>2017-03-18T12:45:34Z</time>
      </trkpt>
      <trkpt lat="42.45722" lon="0.22351">
        <ele>1093.2</ele>
        <time>2017-03-18T12:45:55Z</time>
      </trkpt>
      <trkpt lat="42.45721" lon="0.2235">
        <ele>1093.2</ele>
        <time>2017-03-18T12:46:22Z</time>
      </trkpt>
      <trkpt lat="42.4572" lon="0.22349">
        <ele>1093.2</ele>
        <time>2017-03-18T12:46:47Z</time>
      </trkpt>
      <trkpt lat="42.45721" lon="0.22348">
        <ele>1092.7</ele>
        <time>2017-03-18T12:47:17Z</time>
      </trkpt>
      <trkpt lat="42.4572" lon="0.22349">
        <ele>1092.7</ele>
        <time>2017-03-18T12:47:50Z</time>
      </trkpt>
      <trkpt lat="42.45719" lon="0.22347">
        <ele>1092.7</ele>
        <time>2017-03-18T12:48:26Z</time>
      </trkpt>
      <trkpt lat="42.45718" lon="0.22347">
        <ele>1092.7</ele>
        <time>2017-03-18T12:48:53Z</time>
      </trkpt>
      <trkpt lat="42.45718" lon="0.22346">
        <ele>1092.7</ele>
        <time>2017-03-18T12:49:24Z</time>
      </trkpt>
      <trkpt lat="42.45718" lon="0.22345">
        <ele>1092.7</ele>
        <time>2017-03-18T12:49:48Z</time>
      </trkpt>
      <trkpt lat="42.45718" lon="0.22346">
        <ele>1092.7</ele>
        <time>2017-03-18T12:50:22Z</time>
      </trkpt>
      <trkpt lat="42.45718" lon="0.22346">
        <ele>1092.7</ele>
        <time>2017-03-18T12:50:50Z</time>
      </trkpt>
      <trkpt lat="42.45717" lon="0.22346">
        <ele>1092.7</ele>
        <time>2017-03-18T12:51:08Z</time>
      </trkpt>
      <trkpt lat="42.45717" lon="0.22347">
        <ele>1093.6</ele>
        <time>2017-03-18T12:51:14Z</time>
      </trkpt>
      <trkpt lat="42.45718" lon="0.22348">
        <ele>1093.6</ele>
        <time>2017-03-18T12:51:24Z</time>
      </trkpt>
      <trkpt lat="42.4571" lon="0.22339">
        <ele>1089.8</ele>
        <time>2017-03-18T12:51:30Z</time>
      </trkpt>
      <trkpt lat="42.45707" lon="0.22335">
        <ele>1088.3</ele>
        <time>2017-03-18T12:51:32Z</time>
      </trkpt>
      <trkpt lat="42.457" lon="0.22326">
        <ele>1084</ele>
        <time>2017-03-18T12:51:37Z</time>
      </trkpt>
      <trkpt lat="42.457" lon="0.22324">
        <ele>1083.5</ele>
        <time>2017-03-18T12:51:38Z</time>
      </trkpt>
      <trkpt lat="42.45691" lon="0.22317">
        <ele>1080.7</ele>
        <time>2017-03-18T12:51:43Z</time>
      </trkpt>
      <trkpt lat="42.45686" lon="0.22316">
        <ele>1079.2</ele>
        <time>2017-03-18T12:51:45Z</time>
      </trkpt>
      <trkpt lat="42.45675" lon="0.22307">
        <ele>1074.9</ele>
        <time>2017-03-18T12:51:52Z</time>
      </trkpt>
      <trkpt lat="42.45667" lon="0.22302">
        <ele>1071.1</ele>
        <time>2017-03-18T12:51:57Z</time>
      </trkpt>
      <trkpt lat="42.45657" lon="0.22299">
        <ele>1067.7</ele>
        <time>2017-03-18T12:52:03Z</time>
      </trkpt>
      <trkpt lat="42.45653" lon="0.22298">
        <ele>1065.8</ele>
        <time>2017-03-18T12:52:05Z</time>
      </trkpt>
      <trkpt lat="42.45643" lon="0.22304">
        <ele>1061.4</ele>
        <time>2017-03-18T12:52:11Z</time>
      </trkpt>
      <trkpt lat="42.45639" lon="0.22295">
        <ele>1060</ele>
        <time>2017-03-18T12:52:17Z</time>
      </trkpt>
      <trkpt lat="42.45632" lon="0.22289">
        <ele>1056.6</ele>
        <time>2017-03-18T12:52:21Z</time>
      </trkpt>
      <trkpt lat="42.45625" lon="0.22278">
        <ele>1052.8</ele>
        <time>2017-03-18T12:52:27Z</time>
      </trkpt>
      <trkpt lat="42.45624" lon="0.22277">
        <ele>1052.3</ele>
        <time>2017-03-18T12:52:28Z</time>
      </trkpt>
      <trkpt lat="42.45612" lon="0.22268">
        <ele>1048.4</ele>
        <time>2017-03-18T12:52:33Z</time>
      </trkpt>
      <trkpt lat="42.45602" lon="0.22258">
        <ele>1045.1</ele>
        <time>2017-03-18T12:52:38Z</time>
      </trkpt>
      <trkpt lat="42.45585" lon="0.22247">
        <ele>1042.2</ele>
        <time>2017-03-18T12:52:47Z</time>
      </trkpt>
      <trkpt lat="42.45579" lon="0.22239">
        <ele>1041.2</ele>
        <time>2017-03-18T12:52:50Z</time>
      </trkpt>
      <trkpt lat="42.45564" lon="0.22227">
        <ele>1039.3</ele>
        <time>2017-03-18T12:52:56Z</time>
      </trkpt>
      <trkpt lat="42.45548" lon="0.22226">
        <ele>1035.5</ele>
        <time>2017-03-18T12:53:03Z</time>
      </trkpt>
      <trkpt lat="42.45546" lon="0.22226">
        <ele>1035</ele>
        <time>2017-03-18T12:53:16Z</time>
      </trkpt>
      <trkpt lat="42.45545" lon="0.22226">
        <ele>1035</ele>
        <time>2017-03-18T12:53:18Z</time>
      </trkpt>
      <trkpt lat="42.45526" lon="0.22215">
        <ele>1031.6</ele>
        <time>2017-03-18T12:53:26Z</time>
      </trkpt>
      <trkpt lat="42.45523" lon="0.22212">
        <ele>1031.2</ele>
        <time>2017-03-18T12:53:27Z</time>
      </trkpt>
      <trkpt lat="42.45507" lon="0.22193">
        <ele>1026.8</ele>
        <time>2017-03-18T12:53:33Z</time>
      </trkpt>
      <trkpt lat="42.45493" lon="0.22182">
        <ele>1023.9</ele>
        <time>2017-03-18T12:53:38Z</time>
      </trkpt>
      <trkpt lat="42.45486" lon="0.22171">
        <ele>1020.6</ele>
        <time>2017-03-18T12:53:42Z</time>
      </trkpt>
      <trkpt lat="42.45477" lon="0.22158">
        <ele>1017.2</ele>
        <time>2017-03-18T12:53:46Z</time>
      </trkpt>
      <trkpt lat="42.45467" lon="0.22142">
        <ele>1014.3</ele>
        <time>2017-03-18T12:53:51Z</time>
      </trkpt>
      <trkpt lat="42.45462" lon="0.22132">
        <ele>1011.9</ele>
        <time>2017-03-18T12:53:54Z</time>
      </trkpt>
      <trkpt lat="42.45456" lon="0.22127">
        <ele>1011.4</ele>
        <time>2017-03-18T12:53:56Z</time>
      </trkpt>
      <trkpt lat="42.45448" lon="0.22119">
        <ele>1008.1</ele>
        <time>2017-03-18T12:54:00Z</time>
      </trkpt>
      <trkpt lat="42.45446" lon="0.22112">
        <ele>1007.1</ele>
        <time>2017-03-18T12:54:02Z</time>
      </trkpt>
      <trkpt lat="42.4544" lon="0.22106">
        <ele>1004.2</ele>
        <time>2017-03-18T12:54:09Z</time>
      </trkpt>
      <trkpt lat="42.45441" lon="0.22107">
        <ele>1004.2</ele>
        <time>2017-03-18T12:55:00Z</time>
      </trkpt>
      <trkpt lat="42.45441" lon="0.22108">
        <ele>1003.8</ele>
        <time>2017-03-18T12:55:35Z</time>
      </trkpt>
      <trkpt lat="42.45441" lon="0.22107">
        <ele>1003.8</ele>
        <time>2017-03-18T12:56:12Z</time>
      </trkpt>
      <trkpt lat="42.45441" lon="0.22107">
        <ele>1003.3</ele>
        <time>2017-03-18T12:56:41Z</time>
      </trkpt>
      <trkpt lat="42.45439" lon="0.22106">
        <ele>1003.3</ele>
        <time>2017-03-18T12:56:52Z</time>
      </trkpt>
      <trkpt lat="42.45432" lon="0.221">
        <ele>1000.9</ele>
        <time>2017-03-18T12:57:03Z</time>
      </trkpt>
      <trkpt lat="42.4542" lon="0.221">
        <ele>997.5</ele>
        <time>2017-03-18T12:57:09Z</time>
      </trkpt>
      <trkpt lat="42.45413" lon="0.22102">
        <ele>995.6</ele>
        <time>2017-03-18T12:57:14Z</time>
      </trkpt>
      <trkpt lat="42.45409" lon="0.22084">
        <ele>992.7</ele>
        <time>2017-03-18T12:57:22Z</time>
      </trkpt>
      <trkpt lat="42.45408" lon="0.22084">
        <ele>991.7</ele>
        <time>2017-03-18T12:57:31Z</time>
      </trkpt>
      <trkpt lat="42.45404" lon="0.22061">
        <ele>988.4</ele>
        <time>2017-03-18T12:57:40Z</time>
      </trkpt>
      <trkpt lat="42.45402" lon="0.22056">
        <ele>987.4</ele>
        <time>2017-03-18T12:57:43Z</time>
      </trkpt>
      <trkpt lat="42.45402" lon="0.22052">
        <ele>986.9</ele>
        <time>2017-03-18T12:57:45Z</time>
      </trkpt>
      <trkpt lat="42.45395" lon="0.22033">
        <ele>984</ele>
        <time>2017-03-18T12:57:52Z</time>
      </trkpt>
      <trkpt lat="42.45394" lon="0.2203">
        <ele>984</ele>
        <time>2017-03-18T12:57:53Z</time>
      </trkpt>
      <trkpt lat="42.4539" lon="0.22018">
        <ele>982.1</ele>
        <time>2017-03-18T12:57:57Z</time>
      </trkpt>
      <trkpt lat="42.45386" lon="0.22011">
        <ele>979.2</ele>
        <time>2017-03-18T12:58:02Z</time>
      </trkpt>
      <trkpt lat="42.45386" lon="0.22011">
        <ele>979.2</ele>
        <time>2017-03-18T12:58:08Z</time>
      </trkpt>
      <trkpt lat="42.45383" lon="0.22008">
        <ele>978.8</ele>
        <time>2017-03-18T12:58:12Z</time>
      </trkpt>
      <trkpt lat="42.45377" lon="0.22014">
        <ele>977.8</ele>
        <time>2017-03-18T12:58:16Z</time>
      </trkpt>
      <trkpt lat="42.45369" lon="0.21998">
        <ele>973.5</ele>
        <time>2017-03-18T12:58:24Z</time>
      </trkpt>
      <trkpt lat="42.45368" lon="0.21995">
        <ele>972</ele>
        <time>2017-03-18T12:58:33Z</time>
      </trkpt>
      <trkpt lat="42.45368" lon="0.21994">
        <ele>973</ele>
        <time>2017-03-18T12:58:40Z</time>
      </trkpt>
      <trkpt lat="42.45365" lon="0.21991">
        <ele>971.5</ele>
        <time>2017-03-18T12:58:43Z</time>
      </trkpt>
      <trkpt lat="42.45363" lon="0.21987">
        <ele>970.6</ele>
        <time>2017-03-18T12:58:46Z</time>
      </trkpt>
      <trkpt lat="42.45366" lon="0.21975">
        <ele>966.7</ele>
        <time>2017-03-18T12:58:51Z</time>
      </trkpt>
      <trkpt lat="42.45358" lon="0.21968">
        <ele>964.8</ele>
        <time>2017-03-18T12:58:56Z</time>
      </trkpt>
      <trkpt lat="42.45361" lon="0.21955">
        <ele>962.4</ele>
        <time>2017-03-18T12:59:05Z</time>
      </trkpt>
      <trkpt lat="42.45356" lon="0.21943">
        <ele>960.5</ele>
        <time>2017-03-18T12:59:09Z</time>
      </trkpt>
      <trkpt lat="42.45349" lon="0.21937">
        <ele>957.6</ele>
        <time>2017-03-18T12:59:18Z</time>
      </trkpt>
      <trkpt lat="42.45349" lon="0.21937">
        <ele>957.6</ele>
        <time>2017-03-18T12:59:19Z</time>
      </trkpt>
      <trkpt lat="42.45348" lon="0.2191">
        <ele>954.7</ele>
        <time>2017-03-18T12:59:27Z</time>
      </trkpt>
      <trkpt lat="42.4536" lon="0.21877">
        <ele>950.9</ele>
        <time>2017-03-18T12:59:34Z</time>
      </trkpt>
      <trkpt lat="42.45362" lon="0.21851">
        <ele>948</ele>
        <time>2017-03-18T12:59:40Z</time>
      </trkpt>
      <trkpt lat="42.45373" lon="0.21813">
        <ele>949</ele>
        <time>2017-03-18T12:59:53Z</time>
      </trkpt>
      <trkpt lat="42.45374" lon="0.21808">
        <ele>941</ele>
        <time>2016-12-17T14:00:29Z</time>
      </trkpt>
      <trkpt lat="42.45383" lon="0.21784">
        <ele>941.2</ele>
        <time>2016-12-17T14:00:29Z</time>
      </trkpt>
      <trkpt lat="42.45308" lon="0.21653">
        <ele>910.6</ele>
        <time>2016-12-17T14:00:29Z</time>
      </trkpt>
      <trkpt lat="42.45293" lon="0.21599">
        <ele>907.8</ele>
        <time>2016-12-17T14:00:29Z</time>
      </trkpt>
      <trkpt lat="42.45243" lon="0.21578">
        <ele>900</ele>
        <time>2016-12-17T14:00:29Z</time>
      </trkpt>
      <trkpt lat="42.45231" lon="0.21552">
        <ele>889.5</ele>
        <time>2016-12-17T14:00:29Z</time>
      </trkpt>
      <trkpt lat="42.45179" lon="0.21523">
        <ele>868.6</ele>
        <time>2016-12-17T14:00:29Z</time>
      </trkpt>
      <trkpt lat="42.45152" lon="0.21486">
        <ele>877.3</ele>
        <time>2016-12-17T14:00:29Z</time>
      </trkpt>
      <trkpt lat="42.45137" lon="0.21437">
        <ele>876.9</ele>
        <time>2016-12-17T14:00:29Z</time>
      </trkpt>
      <trkpt lat="42.45138" lon="0.21396">
        <ele>877.8</ele>
        <time>2016-12-17T14:00:29Z</time>
      </trkpt>
      <trkpt lat="42.45137" lon="0.21375">
        <ele>875.9</ele>
        <time>2016-12-17T14:00:42Z</time>
      </trkpt>
      <trkpt lat="42.45138" lon="0.21371">
        <ele>875.9</ele>
        <time>2016-12-17T14:00:44Z</time>
      </trkpt>
      <trkpt lat="42.45137" lon="0.21356">
        <ele>874.5</ele>
        <time>2016-12-17T14:00:55Z</time>
      </trkpt>
      <trkpt lat="42.45137" lon="0.21356">
        <ele>874</ele>
        <time>2016-12-17T14:01:03Z</time>
      </trkpt>
      <trkpt lat="42.45138" lon="0.21349">
        <ele>872.5</ele>
        <time>2016-12-17T14:01:15Z</time>
      </trkpt>
      <trkpt lat="42.45143" lon="0.2133">
        <ele>870.6</ele>
        <time>2016-12-17T14:01:27Z</time>
      </trkpt>
      <trkpt lat="42.45153" lon="0.2131">
        <ele>868.2</ele>
        <time>2016-12-17T14:01:39Z</time>
      </trkpt>
      <trkpt lat="42.45156" lon="0.21291">
        <ele>866.8</ele>
        <time>2016-12-17T14:01:49Z</time>
      </trkpt>
      <trkpt lat="42.45152" lon="0.21276">
        <ele>865.8</ele>
        <time>2016-12-17T14:01:56Z</time>
      </trkpt>
      <trkpt lat="42.45148" lon="0.21255">
        <ele>862.9</ele>
        <time>2016-12-17T14:02:06Z</time>
      </trkpt>
      <trkpt lat="42.45141" lon="0.21234">
        <ele>862.4</ele>
        <time>2016-12-17T14:02:18Z</time>
      </trkpt>
      <trkpt lat="42.4514" lon="0.2123">
        <ele>862</ele>
        <time>2016-12-17T14:02:20Z</time>
      </trkpt>
      <trkpt lat="42.45138" lon="0.21222">
        <ele>861.5</ele>
        <time>2016-12-17T14:02:24Z</time>
      </trkpt>
      <trkpt lat="42.45126" lon="0.21198">
        <ele>860.5</ele>
        <time>2016-12-17T14:02:38Z</time>
      </trkpt>
      <trkpt lat="42.45112" lon="0.21179">
        <ele>858.1</ele>
        <time>2016-12-17T14:02:52Z</time>
      </trkpt>
      <trkpt lat="42.45106" lon="0.21169">
        <ele>857.2</ele>
        <time>2016-12-17T14:02:58Z</time>
      </trkpt>
      <trkpt lat="42.45098" lon="0.21161">
        <ele>857.2</ele>
        <time>2016-12-17T14:03:04Z</time>
      </trkpt>
      <trkpt lat="42.45082" lon="0.21146">
        <ele>855.2</ele>
        <time>2016-12-17T14:03:16Z</time>
      </trkpt>
      <trkpt lat="42.45067" lon="0.21129">
        <ele>854.3</ele>
        <time>2016-12-17T14:03:29Z</time>
      </trkpt>
      <trkpt lat="42.45052" lon="0.21112">
        <ele>853.8</ele>
        <time>2016-12-17T14:03:42Z</time>
      </trkpt>
      <trkpt lat="42.45051" lon="0.2111">
        <ele>853.8</ele>
        <time>2016-12-17T14:03:43Z</time>
      </trkpt>
      <trkpt lat="42.45049" lon="0.21109">
        <ele>853.8</ele>
        <time>2016-12-17T14:03:44Z</time>
      </trkpt>
      <trkpt lat="42.45048" lon="0.21109">
        <ele>853.8</ele>
        <time>2016-12-17T14:03:45Z</time>
      </trkpt>
      <trkpt lat="42.45047" lon="0.21109">
        <ele>852.8</ele>
        <time>2016-12-17T14:03:46Z</time>
      </trkpt>
      <trkpt lat="42.45045" lon="0.21108">
        <ele>852.8</ele>
        <time>2016-12-17T14:03:47Z</time>
      </trkpt>
      <trkpt lat="42.45044" lon="0.21107">
        <ele>852.3</ele>
        <time>2016-12-17T14:03:48Z</time>
      </trkpt>
      <trkpt lat="42.45042" lon="0.21106">
        <ele>852.3</ele>
        <time>2016-12-17T14:03:49Z</time>
      </trkpt>
      <trkpt lat="42.45041" lon="0.21105">
        <ele>851.9</ele>
        <time>2016-12-17T14:03:50Z</time>
      </trkpt>
      <trkpt lat="42.45039" lon="0.21103">
        <ele>851.9</ele>
        <time>2016-12-17T14:03:54Z</time>
      </trkpt>
      <trkpt lat="42.45037" lon="0.211">
        <ele>851.9</ele>
        <time>2016-12-17T14:04:04Z</time>
      </trkpt>
      <trkpt lat="42.45034" lon="0.21099">
        <ele>850.4</ele>
        <time>2016-12-17T14:04:13Z</time>
      </trkpt>
      <trkpt lat="42.45033" lon="0.211">
        <ele>849.5</ele>
        <time>2016-12-17T14:04:34Z</time>
      </trkpt>
      <trkpt lat="42.45033" lon="0.21101">
        <ele>849.5</ele>
        <time>2016-12-17T14:05:11Z</time>
      </trkpt>
      <trkpt lat="42.45033" lon="0.21101">
        <ele>849.5</ele>
        <time>2016-12-17T14:05:48Z</time>
      </trkpt>
      <trkpt lat="42.45033" lon="0.21101">
        <ele>849.5</ele>
        <time>2016-12-17T14:06:33Z</time>
      </trkpt>
      <trkpt lat="42.45032" lon="0.211">
        <ele>849.5</ele>
        <time>2016-12-17T14:07:06Z</time>
      </trkpt>
      <trkpt lat="42.45031" lon="0.21101">
        <ele>849.5</ele>
        <time>2016-12-17T14:07:42Z</time>
      </trkpt>
      <trkpt lat="42.45022" lon="0.21098">
        <ele>849</ele>
        <time>2016-12-17T14:07:55Z</time>
      </trkpt>
      <trkpt lat="42.45011" lon="0.21088">
        <ele>846.1</ele>
        <time>2016-12-17T14:08:04Z</time>
      </trkpt>
      <trkpt lat="42.45013" lon="0.21066">
        <ele>842.7</ele>
        <time>2016-12-17T14:08:16Z</time>
      </trkpt>
      <trkpt lat="42.45018" lon="0.21043">
        <ele>840.3</ele>
        <time>2016-12-17T14:08:27Z</time>
      </trkpt>
      <trkpt lat="42.45018" lon="0.2104">
        <ele>839.4</ele>
        <time>2016-12-17T14:08:28Z</time>
      </trkpt>
      <trkpt lat="42.45019" lon="0.21038">
        <ele>839.4</ele>
        <time>2016-12-17T14:08:29Z</time>
      </trkpt>
      <trkpt lat="42.4502" lon="0.21036">
        <ele>839.4</ele>
        <time>2016-12-17T14:08:30Z</time>
      </trkpt>
      <trkpt lat="42.4502" lon="0.21034">
        <ele>839.4</ele>
        <time>2016-12-17T14:08:31Z</time>
      </trkpt>
      <trkpt lat="42.45021" lon="0.21032">
        <ele>839.4</ele>
        <time>2016-12-17T14:08:32Z</time>
      </trkpt>
      <trkpt lat="42.45021" lon="0.2103">
        <ele>839.4</ele>
        <time>2016-12-17T14:08:33Z</time>
      </trkpt>
      <trkpt lat="42.45023" lon="0.21027">
        <ele>838.9</ele>
        <time>2016-12-17T14:08:35Z</time>
      </trkpt>
      <trkpt lat="42.45023" lon="0.21025">
        <ele>837.9</ele>
        <time>2016-12-17T14:08:36Z</time>
      </trkpt>
      <trkpt lat="42.45024" lon="0.21023">
        <ele>837.9</ele>
        <time>2016-12-17T14:08:37Z</time>
      </trkpt>
      <trkpt lat="42.45024" lon="0.21021">
        <ele>837.9</ele>
        <time>2016-12-17T14:08:38Z</time>
      </trkpt>
      <trkpt lat="42.45023" lon="0.21019">
        <ele>837.9</ele>
        <time>2016-12-17T14:08:39Z</time>
      </trkpt>
      <trkpt lat="42.45024" lon="0.21017">
        <ele>837.9</ele>
        <time>2016-12-17T14:08:40Z</time>
      </trkpt>
      <trkpt lat="42.45024" lon="0.21016">
        <ele>837.9</ele>
        <time>2016-12-17T14:08:41Z</time>
      </trkpt>
      <trkpt lat="42.45024" lon="0.21014">
        <ele>837.9</ele>
        <time>2016-12-17T14:08:42Z</time>
      </trkpt>
      <trkpt lat="42.4503" lon="0.20987">
        <ele>837</ele>
        <time>2016-12-17T14:08:56Z</time>
      </trkpt>
      <trkpt lat="42.45031" lon="0.20984">
        <ele>837</ele>
        <time>2016-12-17T14:08:57Z</time>
      </trkpt>
      <trkpt lat="42.45032" lon="0.20976">
        <ele>836.5</ele>
        <time>2016-12-17T14:09:01Z</time>
      </trkpt>
      <trkpt lat="42.45033" lon="0.20973">
        <ele>836.5</ele>
        <time>2016-12-17T14:09:02Z</time>
      </trkpt>
      <trkpt lat="42.45033" lon="0.20971">
        <ele>836.5</ele>
        <time>2016-12-17T14:09:03Z</time>
      </trkpt>
      <trkpt lat="42.45034" lon="0.20969">
        <ele>836.5</ele>
        <time>2016-12-17T14:09:04Z</time>
      </trkpt>
      <trkpt lat="42.45034" lon="0.20966">
        <ele>836.5</ele>
        <time>2016-12-17T14:09:05Z</time>
      </trkpt>
      <trkpt lat="42.45032" lon="0.20963">
        <ele>835.5</ele>
        <time>2016-12-17T14:09:07Z</time>
      </trkpt>
      <trkpt lat="42.45023" lon="0.20937">
        <ele>833.1</ele>
        <time>2016-12-17T14:09:21Z</time>
      </trkpt>
      <trkpt lat="42.45022" lon="0.20914">
        <ele>830.2</ele>
        <time>2016-12-17T14:09:33Z</time>
      </trkpt>
      <trkpt lat="42.45023" lon="0.20884">
        <ele>829.3</ele>
        <time>2016-12-17T14:09:48Z</time>
      </trkpt>
      <trkpt lat="42.4503" lon="0.20859">
        <ele>827.8</ele>
        <time>2016-12-17T14:10:03Z</time>
      </trkpt>
      <trkpt lat="42.45031" lon="0.20859">
        <ele>826.9</ele>
        <time>2016-12-17T14:10:04Z</time>
      </trkpt>
      <trkpt lat="42.45032" lon="0.20858">
        <ele>826.9</ele>
        <time>2016-12-17T14:10:05Z</time>
      </trkpt>
      <trkpt lat="42.45034" lon="0.20857">
        <ele>826.4</ele>
        <time>2016-12-17T14:10:06Z</time>
      </trkpt>
      <trkpt lat="42.45035" lon="0.20856">
        <ele>826.4</ele>
        <time>2016-12-17T14:10:07Z</time>
      </trkpt>
      <trkpt lat="42.45036" lon="0.20855">
        <ele>825.9</ele>
        <time>2016-12-17T14:10:08Z</time>
      </trkpt>
      <trkpt lat="42.45037" lon="0.20855">
        <ele>825.9</ele>
        <time>2016-12-17T14:10:09Z</time>
      </trkpt>
      <trkpt lat="42.45039" lon="0.20854">
        <ele>825.9</ele>
        <time>2016-12-17T14:10:10Z</time>
      </trkpt>
      <trkpt lat="42.4505" lon="0.20855">
        <ele>824</ele>
        <time>2016-12-17T14:10:18Z</time>
      </trkpt>
      <trkpt lat="42.45068" lon="0.20843">
        <ele>821.1</ele>
        <time>2016-12-17T14:10:32Z</time>
      </trkpt>
      <trkpt lat="42.4507" lon="0.20842">
        <ele>820.6</ele>
        <time>2016-12-17T14:10:33Z</time>
      </trkpt>
      <trkpt lat="42.45071" lon="0.20841">
        <ele>820.6</ele>
        <time>2016-12-17T14:10:34Z</time>
      </trkpt>
      <trkpt lat="42.45075" lon="0.20839">
        <ele>820.6</ele>
        <time>2016-12-17T14:10:39Z</time>
      </trkpt>
      <trkpt lat="42.4508" lon="0.20839">
        <ele>819.7</ele>
        <time>2016-12-17T14:10:51Z</time>
      </trkpt>
      <trkpt lat="42.45083" lon="0.20837">
        <ele>819.2</ele>
        <time>2016-12-17T14:11:28Z</time>
      </trkpt>
      <trkpt lat="42.45083" lon="0.20838">
        <ele>818.7</ele>
        <time>2016-12-17T14:11:44Z</time>
      </trkpt>
      <trkpt lat="42.45086" lon="0.20821">
        <ele>816.8</ele>
        <time>2016-12-17T14:11:54Z</time>
      </trkpt>
      <trkpt lat="42.45086" lon="0.20819">
        <ele>816.3</ele>
        <time>2016-12-17T14:11:55Z</time>
      </trkpt>
      <trkpt lat="42.45087" lon="0.20818">
        <ele>816.3</ele>
        <time>2016-12-17T14:11:56Z</time>
      </trkpt>
      <trkpt lat="42.45088" lon="0.20817">
        <ele>815.8</ele>
        <time>2016-12-17T14:11:57Z</time>
      </trkpt>
      <trkpt lat="42.45089" lon="0.20815">
        <ele>815.8</ele>
        <time>2016-12-17T14:11:58Z</time>
      </trkpt>
      <trkpt lat="42.45091" lon="0.20805">
        <ele>813.9</ele>
        <time>2016-12-17T14:12:04Z</time>
      </trkpt>
      <trkpt lat="42.45092" lon="0.20803">
        <ele>813.9</ele>
        <time>2016-12-17T14:12:05Z</time>
      </trkpt>
      <trkpt lat="42.45093" lon="0.20802">
        <ele>812.9</ele>
        <time>2016-12-17T14:12:06Z</time>
      </trkpt>
      <trkpt lat="42.45094" lon="0.20799">
        <ele>812.5</ele>
        <time>2016-12-17T14:12:08Z</time>
      </trkpt>
      <trkpt lat="42.45095" lon="0.20797">
        <ele>812</ele>
        <time>2016-12-17T14:12:09Z</time>
      </trkpt>
      <trkpt lat="42.45095" lon="0.20796">
        <ele>812</ele>
        <time>2016-12-17T14:12:10Z</time>
      </trkpt>
      <trkpt lat="42.45096" lon="0.20794">
        <ele>811.5</ele>
        <time>2016-12-17T14:12:11Z</time>
      </trkpt>
      <trkpt lat="42.45097" lon="0.20792">
        <ele>811.5</ele>
        <time>2016-12-17T14:12:12Z</time>
      </trkpt>
      <trkpt lat="42.45098" lon="0.20791">
        <ele>811</ele>
        <time>2016-12-17T14:12:13Z</time>
      </trkpt>
      <trkpt lat="42.45094" lon="0.20763">
        <ele>809.1</ele>
        <time>2016-12-17T14:12:26Z</time>
      </trkpt>
      <trkpt lat="42.45098" lon="0.20735">
        <ele>807.6</ele>
        <time>2016-12-17T14:12:40Z</time>
      </trkpt>
      <trkpt lat="42.45102" lon="0.20709">
        <ele>805.7</ele>
        <time>2016-12-17T14:12:52Z</time>
      </trkpt>
      <trkpt lat="42.45103" lon="0.20707">
        <ele>805.7</ele>
        <time>2016-12-17T14:12:53Z</time>
      </trkpt>
      <trkpt lat="42.45105" lon="0.20704">
        <ele>805.7</ele>
        <time>2016-12-17T14:12:55Z</time>
      </trkpt>
      <trkpt lat="42.45106" lon="0.20703">
        <ele>804.8</ele>
        <time>2016-12-17T14:12:56Z</time>
      </trkpt>
      <trkpt lat="42.45108" lon="0.20702">
        <ele>804.8</ele>
        <time>2016-12-17T14:12:57Z</time>
      </trkpt>
      <trkpt lat="42.45109" lon="0.20701">
        <ele>804.8</ele>
        <time>2016-12-17T14:12:58Z</time>
      </trkpt>
      <trkpt lat="42.4511" lon="0.20699">
        <ele>804.3</ele>
        <time>2016-12-17T14:12:59Z</time>
      </trkpt>
      <trkpt lat="42.45112" lon="0.20696">
        <ele>802.8</ele>
        <time>2016-12-17T14:13:01Z</time>
      </trkpt>
      <trkpt lat="42.45114" lon="0.20696">
        <ele>802.8</ele>
        <time>2016-12-17T14:13:02Z</time>
      </trkpt>
      <trkpt lat="42.45115" lon="0.20695">
        <ele>802.8</ele>
        <time>2016-12-17T14:13:03Z</time>
      </trkpt>
      <trkpt lat="42.45116" lon="0.20694">
        <ele>802.8</ele>
        <time>2016-12-17T14:13:04Z</time>
      </trkpt>
      <trkpt lat="42.45117" lon="0.20693">
        <ele>802.8</ele>
        <time>2016-12-17T14:13:05Z</time>
      </trkpt>
      <trkpt lat="42.45118" lon="0.20691">
        <ele>802.8</ele>
        <time>2016-12-17T14:13:06Z</time>
      </trkpt>
      <trkpt lat="42.45119" lon="0.20688">
        <ele>802.8</ele>
        <time>2016-12-17T14:13:07Z</time>
      </trkpt>
      <trkpt lat="42.45121" lon="0.20681">
        <ele>802.8</ele>
        <time>2016-12-17T14:13:11Z</time>
      </trkpt>
      <trkpt lat="42.45121" lon="0.20678">
        <ele>803.3</ele>
        <time>2016-12-17T14:13:12Z</time>
      </trkpt>
      <trkpt lat="42.45116" lon="0.2067">
        <ele>803.3</ele>
        <time>2016-12-17T14:13:17Z</time>
      </trkpt>
      <trkpt lat="42.45107" lon="0.2064">
        <ele>804.3</ele>
        <time>2016-12-17T14:13:28Z</time>
      </trkpt>
      <trkpt lat="42.45085" lon="0.20625">
        <ele>805.2</ele>
        <time>2016-12-17T14:13:38Z</time>
      </trkpt>
      <trkpt lat="42.4506" lon="0.20629">
        <ele>803.8</ele>
        <time>2016-12-17T14:13:51Z</time>
      </trkpt>
      <trkpt lat="42.45029" lon="0.20629">
        <ele>803.8</ele>
        <time>2016-12-17T14:14:03Z</time>
      </trkpt>
      <trkpt lat="42.44993" lon="0.20628">
        <ele>803.3</ele>
        <time>2016-12-17T14:14:17Z</time>
      </trkpt>
      <trkpt lat="42.44975" lon="0.20617">
        <ele>801.9</ele>
        <time>2016-12-17T14:14:26Z</time>
      </trkpt>
    </trkseg>
  </trk>
</gpx>